WXM80 ListenWXM80 Stop

You find our weather info also at:

UK Metoffice

WeatherCloud

Weather Underground

Northeastern Weather Network

AWEKAS

Citizen Weather Observer Program (CWOP)

HAMweather, WeatherForYou, PWS Weather


Weather Underground History page Text

Daily Summary for November 17, 2017 Units:  Metric    English   Both
« Previous Day
Next Day »
Daily Weekly Monthly Yearly Custom
  High: Low: Average:
Temperature: 9.3 °C 3.9 °C 6.6 °C
Dew Point: 2.9 °C -4.7 °C -1.1 °C
Humidity: 73 % 46 % 58 %
Wind Speed: 19.6 km/h 0 km/h 9 km/h
Wind Gust: 38.9 km/h - -
Wind:- - WNW
Pressure: 1019.5 hPa 1011.1 hPa -
Precipitation: 0 mm    
Historical Graphs
 
 
Tabular Data for November 17, 2017
Time Temperature Dew Point Pressure Wind Wind Speed Wind Gust Humidity Rainfall Rate (Hourly)
00:01 7.7 °C 2.7 °C 1011.1 hPa WNW 10.3 km/h 31.5 km/h 71 % 0 mm
00:02 7.7 °C 2.7 °C 1011.1 hPa West 15.3 km/h 25.9 km/h 71 % 0 mm
00:07 7.6 °C 2.7 °C 1011.1 hPa WNW 11.3 km/h 16.7 km/h 71 % 0 mm
00:12 7.6 °C 2.9 °C 1011.1 hPa North 14.3 km/h 22.5 km/h 72 % 0 mm
00:17 7.6 °C 2.6 °C 1011.1 hPa West 19.6 km/h 31.5 km/h 71 % 0 mm
00:22 7.6 °C 2.8 °C 1011.4 hPa West 7.1 km/h 18.5 km/h 72 % 0 mm
00:27 7.5 °C 2.6 °C 1011.4 hPa North 8 km/h 25.9 km/h 71 % 0 mm
00:32 7.4 °C 2.7 °C 1011.4 hPa WNW 7.4 km/h 14.8 km/h 72 % 0 mm
00:37 7.4 °C 2.7 °C 1011.4 hPa WNW 9 km/h 29 km/h 72 % 0 mm
00:42 7.3 °C 2.6 °C 1011.4 hPa West 15.9 km/h 25.9 km/h 72 % 0 mm
00:47 7.3 °C 2.6 °C 1011.4 hPa West 5.5 km/h 14.5 km/h 72 % 0 mm
00:52 7.3 °C 2.8 °C 1011.4 hPa WNW 15.6 km/h 27.8 km/h 73 % 0 mm
00:57 7.2 °C 2.5 °C 1011.4 hPa WNW 12.9 km/h 22.2 km/h 72 % 0 mm
01:02 7.2 °C 2.4 °C 1011.7 hPa West 6.4 km/h 14.8 km/h 72 % 0 mm
01:08 7.1 °C 2.4 °C 1011.7 hPa West 10.8 km/h 24.1 km/h 72 % 0 mm
01:13 7.1 °C 2.3 °C 1011.7 hPa West 12.7 km/h 18.5 km/h 72 % 0 mm
01:18 7.1 °C 2.3 °C 1011.7 hPa SSW 10 km/h 14.8 km/h 72 % 0 mm
01:23 7 °C 2.3 °C 1011.7 hPa West 15.6 km/h 29 km/h 72 % 0 mm
01:28 6.9 °C 2.4 °C 1011.7 hPa West 11.1 km/h 20.4 km/h 73 % 0 mm
01:33 6.9 °C 2.2 °C 1011.7 hPa West 10.1 km/h 22.2 km/h 72 % 0 mm
01:38 6.9 °C 2.2 °C 1011.7 hPa WNW 13.7 km/h 24.1 km/h 72 % 0 mm
01:43 6.9 °C 2.2 °C 1011.7 hPa WNW 11.3 km/h 27.8 km/h 72 % 0 mm
01:48 6.8 °C 1.7 °C 1012.1 hPa NW 16.7 km/h 31.5 km/h 70 % 0 mm
01:53 6.8 °C 1.7 °C 1013.1 hPa WSW 12.6 km/h 25.9 km/h 70 % 0 mm
01:58 6.8 °C 1.7 °C 1013.1 hPa NW 10.6 km/h 25.9 km/h 70 % 0 mm
02:03 6.8 °C 1.7 °C 1013.1 hPa West 11.7 km/h 24.1 km/h 70 % 0 mm
02:08 6.7 °C 1.4 °C 1013.1 hPa NW 8.9 km/h 22.2 km/h 69 % 0 mm
02:13 6.7 °C 1.2 °C 1013.1 hPa West 16.6 km/h 38.9 km/h 68 % 0 mm
02:18 6.7 °C 1.2 °C 1013.4 hPa North 9.5 km/h 18.5 km/h 68 % 0 mm
02:23 6.6 °C 1.1 °C 1013.1 hPa West 14 km/h 20.4 km/h 68 % 0 mm
02:28 6.6 °C 1.3 °C 1013.1 hPa SW 16.6 km/h 29.6 km/h 69 % 0 mm
02:33 6.6 °C 1.3 °C 1013.4 hPa SSW 8.7 km/h 16.7 km/h 69 % 0 mm
02:34 6.6 °C 1.3 °C 1013.4 hPa SW 16.1 km/h 31.5 km/h 69 % 0 mm
02:39 6.5 °C 1.2 °C 1013.4 hPa West 8.7 km/h 18.5 km/h 69 % 0 mm
02:44 6.5 °C 1.2 °C 1013.4 hPa West 10.9 km/h 25.9 km/h 69 % 0 mm
02:49 6.4 °C 1.2 °C 1013.4 hPa NNW 15.3 km/h 27.8 km/h 69 % 0 mm
02:54 6.4 °C 0.9 °C 1013.8 hPa SW 16.1 km/h 24.1 km/h 68 % 0 mm
02:59 6.4 °C 1.2 °C 1013.4 hPa NW 12.1 km/h 24.1 km/h 69 % 0 mm
03:04 6.4 °C 0.9 °C 1013.4 hPa NNW 12.4 km/h 25.9 km/h 68 % 0 mm
03:09 6.4 °C 0.9 °C 1013.8 hPa WNW 10.5 km/h 25.9 km/h 68 % 0 mm
03:14 6.4 °C 0.9 °C 1013.8 hPa NW 12.7 km/h 25.9 km/h 68 % 0 mm
03:19 6.5 °C 0.8 °C 1013.8 hPa NW 15.9 km/h 25.9 km/h 67 % 0 mm
03:24 6.5 °C 0.8 °C 1014.1 hPa SW 17.5 km/h 31.5 km/h 67 % 0 mm
03:29 6.6 °C 0.7 °C 1014.1 hPa WNW 13.5 km/h 25.9 km/h 66 % 0 mm
03:39 6.6 °C 0.9 °C 1014.1 hPa NNW 12.6 km/h 22.2 km/h 67 % 0 mm
03:44 6.6 °C 0.9 °C 1014.1 hPa NNW 13 km/h 20.4 km/h 67 % 0 mm
03:49 6.5 °C 0.4 °C 1014.1 hPa WNW 15 km/h 27.8 km/h 65 % 0 mm
03:54 6.5 °C 0.4 °C 1013.8 hPa NNE 6.9 km/h 20.4 km/h 65 % 0 mm
03:59 6.5 °C 0.4 °C 1014.1 hPa West 16.3 km/h 25.9 km/h 65 % 0 mm
04:04 6.5 °C 0.6 °C 1014.1 hPa WNW 15.9 km/h 37 km/h 66 % 0 mm
04:09 6.4 °C 0.6 °C 1014.1 hPa WNW 12.4 km/h 22.2 km/h 66 % 0 mm
04:14 6.4 °C 0.8 °C 1014.4 hPa West 10 km/h 19.3 km/h 67 % 0 mm
04:19 6.4 °C 0.3 °C 1014.4 hPa NW 16.3 km/h 25.9 km/h 65 % 0 mm
04:24 6.3 °C 0.2 °C 1014.4 hPa WNW 10.8 km/h 18.5 km/h 65 % 0 mm
04:29 6.3 °C 0.2 °C 1014.8 hPa NNE 7.9 km/h 18.5 km/h 65 % 0 mm
04:34 6.3 °C 0.2 °C 1014.8 hPa WNW 11.6 km/h 27.8 km/h 65 % 0 mm
04:39 6.2 °C 0.1 °C 1014.8 hPa NNW 18 km/h 24.1 km/h 65 % 0 mm
04:44 6.2 °C 0.1 °C 1015.1 hPa WNW 12.2 km/h 18.5 km/h 65 % 0 mm
04:49 6.2 °C 0.3 °C 1015.1 hPa West 8.4 km/h 11.1 km/h 66 % 0 mm
04:55 6.2 °C 0.1 °C 1015.1 hPa West 15 km/h 25.9 km/h 65 % 0 mm
05:00 6.1 °C 0 °C 1015.5 hPa NNW 12.4 km/h 27.8 km/h 65 % 0 mm
05:05 6.1 °C -0.1 °C 1015.1 hPa West 12.9 km/h 31.5 km/h 65 % 0 mm
05:10 6 °C 0.1 °C 1015.1 hPa NW 10.1 km/h 20.4 km/h 66 % 0 mm
05:15 5.9 °C 0.1 °C 1015.1 hPa WNW 9.7 km/h 19.3 km/h 66 % 0 mm
05:20 5.9 °C 0.3 °C 1015.1 hPa WNW 8.4 km/h 20.4 km/h 67 % 0 mm
05:25 5.8 °C -0.2 °C 1015.1 hPa West 18.3 km/h 31.5 km/h 65 % 0 mm
05:30 5.8 °C -0.2 °C 1015.5 hPa WSW 15.9 km/h 30.6 km/h 65 % 0 mm
05:35 5.8 °C 0.2 °C 1015.5 hPa NNW 13.4 km/h 31.5 km/h 67 % 0 mm
05:40 5.8 °C -0.3 °C 1015.5 hPa West 15.1 km/h 29.6 km/h 65 % 0 mm
05:45 5.7 °C -0.2 °C 1015.5 hPa North 13.2 km/h 22.5 km/h 66 % 0 mm
05:50 5.7 °C -0.3 °C 1015.5 hPa West 10.9 km/h 22.2 km/h 65 % 0 mm
05:55 5.7 °C -0.2 °C 1015.5 hPa WNW 18.2 km/h 25.9 km/h 66 % 0 mm
06:00 5.7 °C -0.2 °C 1015.8 hPa West 12.4 km/h 27.8 km/h 66 % 0 mm
06:05 5.6 °C -0.2 °C 1015.8 hPa NW 13.7 km/h 22.2 km/h 66 % 0 mm
06:10 5.6 °C -0.2 °C 1016.1 hPa WNW 11.7 km/h 18.5 km/h 66 % 0 mm
06:16 5.6 °C -0.3 °C 1016.1 hPa WNW 13.8 km/h 25.9 km/h 66 % 0 mm
06:21 5.6 °C -0.3 °C 1016.1 hPa West 12.9 km/h 29 km/h 66 % 0 mm
06:26 5.6 °C 0.1 °C 1016.1 hPa WNW 9.7 km/h 27.4 km/h 68 % 0 mm
06:31 5.5 °C -0.3 °C 1016.1 hPa WSW 17.5 km/h 29.6 km/h 66 % 0 mm
06:36 5.5 °C -0.6 °C 1016.1 hPa WNW 11.3 km/h 27.4 km/h 65 % 0 mm
06:41 5.4 °C -0.4 °C 1016.5 hPa WNW 12.9 km/h 32.2 km/h 66 % 0 mm
06:46 5.4 °C -0.2 °C 1016.1 hPa WNW 3.2 km/h 19.3 km/h 67 % 0 mm
06:51 5.4 °C -0.4 °C 1016.1 hPa West 19.3 km/h 32.2 km/h 66 % 0 mm
06:56 5.4 °C -0.3 °C 1016.5 hPa WNW 12.9 km/h 25.7 km/h 67 % 0 mm
07:01 5.3 °C 0.1 °C 1016.5 hPa West 9.7 km/h 18.5 km/h 69 % 0 mm
07:06 5.3 °C -0.3 °C 1016.5 hPa WNW 15.4 km/h 29.6 km/h 67 % 0 mm
07:11 5.3 °C 0.1 °C 1016.8 hPa North 9.5 km/h 24.1 km/h 69 % 0 mm
07:16 5.3 °C 0.2 °C 1016.8 hPa WNW 2.9 km/h 13 km/h 70 % 0 mm
07:21 5.2 °C -0.2 °C 1016.8 hPa West 18 km/h 31.5 km/h 68 % 0 mm
07:26 5.2 °C -0.2 °C 1016.8 hPa NW 13.2 km/h 27.8 km/h 68 % 0 mm
07:31 5.2 °C -0.2 °C 1016.8 hPa NW 15.1 km/h 24.1 km/h 68 % 0 mm
07:36 5.2 °C -0.3 °C 1017.2 hPa WNW 14 km/h 22.2 km/h 68 % 0 mm
07:41 5.2 °C -0.1 °C 1017.2 hPa NNW 6.6 km/h 14.5 km/h 69 % 0 mm
07:46 5.2 °C -0.1 °C 1017.5 hPa WSW 6.4 km/h 9.7 km/h 69 % 0 mm
07:51 5.2 °C -0.3 °C 1017.5 hPa NW 8.9 km/h 18.5 km/h 68 % 0 mm
07:56 5.2 °C 0 °C 1017.5 hPa West 12.2 km/h 22.2 km/h 69 % 0 mm
08:01 5.2 °C 0.2 °C 1017.5 hPa NW 7.9 km/h 18.5 km/h 70 % 0 mm
08:06 5.3 °C -0.2 °C 1017.5 hPa WNW 6.1 km/h 14.8 km/h 68 % 0 mm
08:11 5.3 °C 0.1 °C 1017.5 hPa NNW 6.8 km/h 18.5 km/h 69 % 0 mm
08:16 5.4 °C 0 °C 1017.5 hPa NNE 11.3 km/h 22.2 km/h 68 % 0 mm
08:21 5.5 °C -0.2 °C 1017.5 hPa WNW 11.6 km/h 17.7 km/h 67 % 0 mm
08:27 5.6 °C -0.1 °C 1017.8 hPa West 11.7 km/h 18.5 km/h 67 % 0 mm
08:32 5.7 °C -0.2 °C 1017.8 hPa NW 9.8 km/h 29.6 km/h 66 % 0 mm
08:36 5.7 °C 0.1 °C 1017.8 hPa NW 10.9 km/h 20.4 km/h 67 % 0 mm
08:41 5.8 °C -0.1 °C 1017.8 hPa WNW 9.7 km/h 20.4 km/h 66 % 0 mm
08:47 5.9 °C 0.3 °C 1017.8 hPa NW 6.9 km/h 22.2 km/h 67 % 0 mm
08:52 6.1 °C 0 °C 1017.8 hPa West 13.4 km/h 27.8 km/h 65 % 0 mm
08:57 6.2 °C -0.3 °C 1017.8 hPa NNW 11.4 km/h 24.1 km/h 63 % 0 mm
09:02 6.4 °C 0.3 °C 1017.8 hPa West 7.6 km/h 16.7 km/h 65 % 0 mm
09:07 6.7 °C 0.1 °C 1018.2 hPa NW 9.3 km/h 18.5 km/h 63 % 0 mm
09:12 6.9 °C 0.6 °C 1018.2 hPa WNW 6.3 km/h 24.1 km/h 64 % 0 mm
09:17 7 °C 0 °C 1018.2 hPa WNW 6.4 km/h 18.5 km/h 61 % 0 mm
09:22 7.2 °C 0.4 °C 1018.2 hPa NW 4.5 km/h 14.8 km/h 62 % 0 mm
09:23 7.2 °C 0.7 °C 1018.2 hPa NW 10.3 km/h 14.8 km/h 63 % 0 mm
09:28 7.4 °C 0.4 °C 1018.2 hPa NNW 9.3 km/h 14.8 km/h 61 % 0 mm
09:33 7.6 °C 0.1 °C 1018.5 hPa NW 7.9 km/h 13 km/h 59 % 0 mm
09:38 7.7 °C -0.1 °C 1018.2 hPa NNW 7.1 km/h 18.5 km/h 58 % 0 mm
09:43 7.9 °C 0.9 °C 1018.2 hPa NNE 7.6 km/h 14.5 km/h 61 % 0 mm
09:49 8.2 °C 0.8 °C 1018.2 hPa NNW 9.2 km/h 18.5 km/h 60 % 0 mm
09:54 8.3 °C 1.2 °C 1018.2 hPa WNW 4.7 km/h 14.8 km/h 61 % 0 mm
09:59 8.5 °C 0.7 °C 1018.5 hPa NW 5.8 km/h 18.5 km/h 58 % 0 mm
10:04 8.7 °C 0.8 °C 1018.5 hPa NNW 5.5 km/h 11.1 km/h 58 % 0 mm
10:09 8.8 °C 0.2 °C 1018.2 hPa West 10.6 km/h 20.4 km/h 55 % 0 mm
10:14 8.8 °C 0.2 °C 1018.2 hPa NW 6.3 km/h 18.5 km/h 55 % 0 mm
10:19 8.8 °C 0.2 °C 1018.5 hPa West 8.7 km/h 16.7 km/h 55 % 0 mm
10:21 8.8 °C -0.1 °C 1018.2 hPa WNW 14.5 km/h 25.7 km/h 54 % 0 mm
10:26 8.7 °C 0.1 °C 1018.5 hPa WNW 12.9 km/h 24.1 km/h 55 % 0 mm
10:31 8.7 °C 0.4 °C 1018.2 hPa WNW 11.3 km/h 19.3 km/h 56 % 0 mm
10:36 8.6 °C 0.6 °C 1018.2 hPa WNW 8 km/h 27.4 km/h 57 % 0 mm
10:41 8.6 °C 0.1 °C 1018.2 hPa NW 9.7 km/h 20.9 km/h 55 % 0 mm
10:46 8.5 °C 0.2 °C 1018.2 hPa NW 11.3 km/h 24.1 km/h 56 % 0 mm
10:51 8.3 °C 0.1 °C 1018.2 hPa WNW 9.7 km/h 24.1 km/h 56 % 0 mm
10:56 8.2 °C 0.2 °C 1017.8 hPa NW 4.5 km/h 18.5 km/h 57 % 0 mm
11:01 8.1 °C -0.2 °C 1017.8 hPa NNW 6.3 km/h 20.4 km/h 56 % 0 mm
11:06 8 °C 0 °C 1017.8 hPa WNW 4.7 km/h 16.1 km/h 57 % 0 mm
11:16 7.8 °C -0.2 °C 1017.8 hPa NW 9.7 km/h 22.5 km/h 57 % 0 mm
11:21 7.7 °C -0.1 °C 1017.5 hPa NW 4.8 km/h 16.1 km/h 58 % 0 mm
11:26 7.7 °C -0.3 °C 1017.5 hPa WNW 12.9 km/h 22.5 km/h 57 % 0 mm
11:36 7.6 °C -0.4 °C 1017.5 hPa WNW 9.7 km/h 32.2 km/h 57 % 0 mm
11:41 7.6 °C -0.2 °C 1017.5 hPa WNW 8 km/h 19.3 km/h 58 % 0 mm
11:46 7.6 °C -0.4 °C 1017.5 hPa WNW 9.7 km/h 20.9 km/h 57 % 0 mm
11:51 7.6 °C -0.4 °C 1017.5 hPa West 9.7 km/h 19.3 km/h 57 % 0 mm
11:56 7.7 °C -0.1 °C 1017.2 hPa West 6.6 km/h 12.9 km/h 58 % 0 mm
12:01 7.7 °C -0.5 °C 1017.2 hPa West 10 km/h 18.5 km/h 56 % 0 mm
12:02 7.7 °C -0.8 °C 1017.2 hPa WSW 5.6 km/h 18.5 km/h 55 % 0 mm
12:07 7.7 °C -0.5 °C 1017.2 hPa West 7.2 km/h 14.8 km/h 56 % 0 mm
12:12 7.8 °C -0.4 °C 1017.2 hPa West 4.3 km/h 14.8 km/h 56 % 0 mm
12:17 7.8 °C -0.4 °C 1017.2 hPa WNW 12.7 km/h 16.7 km/h 56 % 0 mm
12:22 7.9 °C -0.6 °C 1017.2 hPa WNW 11.3 km/h 20.4 km/h 55 % 0 mm
12:28 7.9 °C -1.1 °C 1017.2 hPa West 11.6 km/h 16.7 km/h 53 % 0 mm
12:33 8 °C -0.8 °C 1017.2 hPa WNW 10.6 km/h 24.1 km/h 54 % 0 mm
12:38 8.1 °C -0.9 °C 1017.2 hPa WNW 12.4 km/h 20.9 km/h 53 % 0 mm
12:43 8.1 °C -0.4 °C 1017.5 hPa NW 3.9 km/h 8 km/h 55 % 0 mm
12:48 8.1 °C -0.4 °C 1017.5 hPa SW 6.3 km/h 18.5 km/h 55 % 0 mm
12:53 8.2 °C -0.3 °C 1017.5 hPa WNW 7.6 km/h 13 km/h 55 % 0 mm
12:58 8.3 °C -0.5 °C 1017.5 hPa WNW 11.6 km/h 24.1 km/h 54 % 0 mm
13:03 8.3 °C -0.7 °C 1017.5 hPa West 13.4 km/h 16.7 km/h 53 % 0 mm
13:08 8.4 °C -0.8 °C 1017.5 hPa WNW 6.4 km/h 20.4 km/h 52 % 0 mm
13:13 8.6 °C -0.5 °C 1017.5 hPa West 11.6 km/h 24.1 km/h 53 % 0 mm
13:18 8.7 °C -0.3 °C 1017.5 hPa WNW 8 km/h 13 km/h 53 % 0 mm
13:23 8.9 °C -0.4 °C 1017.5 hPa West 11.1 km/h 20.4 km/h 52 % 0 mm
13:28 9 °C -0.6 °C 1017.5 hPa WNW 7.4 km/h 24.1 km/h 51 % 0 mm
13:33 9.1 °C -0.8 °C 1017.5 hPa WSW 11.6 km/h 22.2 km/h 50 % 0 mm
13:38 9.2 °C -0.7 °C 1017.5 hPa West 13.4 km/h 18.5 km/h 50 % 0 mm
13:43 9.2 °C -0.7 °C 1017.5 hPa WSW 11.9 km/h 24.1 km/h 50 % 0 mm
13:48 9.3 °C -0.6 °C 1017.5 hPa SSW 5.8 km/h 14.8 km/h 50 % 0 mm
13:53 9.3 °C -0.9 °C 1017.5 hPa WSW 13.7 km/h 19.3 km/h 49 % 0 mm
13:58 9.3 °C -1.2 °C 1017.5 hPa WNW 10.6 km/h 24.1 km/h 48 % 0 mm
14:03 9.3 °C -0.9 °C 1017.5 hPa NW 10.1 km/h 14.8 km/h 49 % 0 mm
14:08 9.2 °C -1.6 °C 1017.5 hPa NW 9.2 km/h 20.4 km/h 47 % 0 mm
14:13 9.1 °C -1.1 °C 1017.2 hPa SW 6.6 km/h 13 km/h 49 % 0 mm
14:18 9.1 °C -1.7 °C 1017.5 hPa WNW 13.4 km/h 17.7 km/h 47 % 0 mm
14:23 8.9 °C -1.5 °C 1017.2 hPa SW 8.5 km/h 14.8 km/h 48 % 0 mm
14:28 8.8 °C -1.3 °C 1017.2 hPa West 10.8 km/h 18.5 km/h 49 % 0 mm
14:33 8.7 °C -1.1 °C 1017.2 hPa WSW 11.7 km/h 20.9 km/h 50 % 0 mm
14:38 8.7 °C -1.2 °C 1017.5 hPa West 10.6 km/h 16.7 km/h 50 % 0 mm
14:44 8.6 °C -1.2 °C 1017.5 hPa NW 10.1 km/h 18.5 km/h 50 % 0 mm
14:49 8.6 °C -1.3 °C 1017.5 hPa WSW 14.3 km/h 19.3 km/h 50 % 0 mm
14:54 8.4 °C -1.4 °C 1017.5 hPa WSW 11.7 km/h 22.5 km/h 50 % 0 mm
14:59 8.4 °C -1.7 °C 1017.5 hPa SW 14.8 km/h 27.8 km/h 49 % 0 mm
15:00 8.4 °C -1.7 °C 1017.5 hPa WSW 12.9 km/h 25.9 km/h 49 % 0 mm
15:05 8.3 °C -1.8 °C 1017.8 hPa West 17.4 km/h 37 km/h 49 % 0 mm
15:10 8.3 °C -1.6 °C 1017.8 hPa WSW 10.3 km/h 18.5 km/h 50 % 0 mm
15:15 8.2 °C -1.6 °C 1017.8 hPa WSW 8.2 km/h 18.5 km/h 50 % 0 mm
15:20 8.2 °C -1.7 °C 1017.8 hPa NW 16.1 km/h 27.8 km/h 50 % 0 mm
15:25 8.1 °C -1.4 °C 1017.8 hPa NW 9.8 km/h 29 km/h 51 % 0 mm
15:30 8.1 °C -1.5 °C 1017.8 hPa WNW 13.4 km/h 27.8 km/h 51 % 0 mm
15:35 8 °C -1.8 °C 1017.8 hPa West 7.9 km/h 14.8 km/h 50 % 0 mm
15:40 7.9 °C -1.8 °C 1018.2 hPa WNW 10.1 km/h 18.5 km/h 50 % 0 mm
15:45 7.9 °C -1.9 °C 1018.2 hPa NW 9 km/h 13 km/h 50 % 0 mm
15:50 7.8 °C -1.9 °C 1017.8 hPa WNW 14.2 km/h 24.1 km/h 50 % 0 mm
15:55 7.7 °C -2.1 °C 1018.2 hPa NW 8.4 km/h 18.5 km/h 50 % 0 mm
16:00 7.7 °C -2.4 °C 1018.2 hPa West 10.8 km/h 27.8 km/h 49 % 0 mm
16:05 7.6 °C -2.5 °C 1018.2 hPa WSW 12.1 km/h 24.1 km/h 49 % 0 mm
16:10 7.6 °C -2.2 °C 1018.2 hPa West 12.1 km/h 22.2 km/h 50 % 0 mm
16:15 7.5 °C -2 °C 1018.2 hPa WNW 9.8 km/h 20.4 km/h 51 % 0 mm
16:20 7.5 °C -2 °C 1018.2 hPa West 4.8 km/h 9.3 km/h 51 % 0 mm
16:25 7.4 °C -2.9 °C 1018.2 hPa West 12.1 km/h 25.9 km/h 48 % 0 mm
16:30 7.4 °C -2.9 °C 1018.5 hPa West 7.7 km/h 13 km/h 48 % 0 mm
16:35 7.3 °C -2.9 °C 1018.5 hPa WNW 12.2 km/h 22.2 km/h 48 % 0 mm
16:40 7.3 °C -2.9 °C 1018.5 hPa WSW 5.6 km/h 9.7 km/h 48 % 0 mm
16:45 7.3 °C -3 °C 1018.5 hPa WNW 5 km/h 9.7 km/h 48 % 0 mm
16:50 7.2 °C -3.7 °C 1018.5 hPa West 6.1 km/h 11.1 km/h 46 % 0 mm
16:55 7.2 °C -3.7 °C 1018.5 hPa NNW 10.9 km/h 18.5 km/h 46 % 0 mm
17:00 7.1 °C -3.2 °C 1018.5 hPa West 8.9 km/h 16.1 km/h 48 % 0 mm
17:05 7.1 °C -3.2 °C 1018.5 hPa WNW 11.3 km/h 27.8 km/h 48 % 0 mm
17:10 7 °C -3 °C 1018.5 hPa WNW 8.4 km/h 13 km/h 49 % 0 mm
17:15 6.9 °C -3.1 °C 1018.2 hPa WNW 4.5 km/h 14.8 km/h 49 % 0 mm
17:20 6.9 °C -2.8 °C 1018.5 hPa WNW 5.1 km/h 18.5 km/h 50 % 0 mm
17:25 6.9 °C -3.4 °C 1018.5 hPa West 10.9 km/h 18.5 km/h 48 % 0 mm
17:30 6.9 °C -3.1 °C 1018.5 hPa SW 5.5 km/h 18.5 km/h 49 % 0 mm
17:35 6.9 °C -3.1 °C 1018.5 hPa WNW 5.6 km/h 8 km/h 49 % 0 mm
17:41 6.9 °C -3.4 °C 1018.5 hPa WNW 8 km/h 16.1 km/h 48 % 0 mm
17:46 6.8 °C -3.4 °C 1018.5 hPa WNW 4.8 km/h 19.3 km/h 48 % 0 mm
17:51 6.8 °C -3.8 °C 1018.5 hPa WNW 9.7 km/h 19.3 km/h 47 % 0 mm
17:56 6.8 °C -3.8 °C 1018.5 hPa West 9.7 km/h 19.3 km/h 47 % 0 mm
18:01 6.7 °C -3.6 °C 1018.8 hPa NW 9.2 km/h 13 km/h 48 % 0 mm
18:06 6.7 °C -3.9 °C 1018.8 hPa West 7.7 km/h 16.7 km/h 47 % 0 mm
18:11 6.7 °C -3.9 °C 1018.8 hPa West 0.8 km/h 7.4 km/h 47 % 0 mm
18:16 6.6 °C -3.6 °C 1018.8 hPa WNW 2.3 km/h 9.3 km/h 48 % 0 mm
18:21 6.6 °C -3.7 °C 1018.8 hPa WNW 2.6 km/h 11.1 km/h 48 % 0 mm
18:26 6.5 °C -3.7 °C 1018.8 hPa West 4 km/h 11.1 km/h 48 % 0 mm
18:31 6.4 °C -3.8 °C 1018.8 hPa WNW 3.1 km/h 5.6 km/h 48 % 0 mm
18:36 6.4 °C -3.8 °C 1018.8 hPa West 2.9 km/h 5.6 km/h 48 % 0 mm
18:41 6.3 °C -3.6 °C 1018.8 hPa West 4.8 km/h 9.3 km/h 49 % 0 mm
18:46 6.3 °C -4.2 °C 1018.8 hPa WSW 7.1 km/h 13 km/h 47 % 0 mm
18:51 6.2 °C -3.8 °C 1018.8 hPa WNW 2.7 km/h 11.1 km/h 49 % 0 mm
18:56 6.2 °C -4.1 °C 1019.2 hPa West 4 km/h 11.1 km/h 48 % 0 mm
19:01 6.1 °C -4.2 °C 1018.8 hPa WNW 3.9 km/h 9.3 km/h 48 % 0 mm
19:06 6 °C -4.2 °C 1018.8 hPa West 4 km/h 14.8 km/h 48 % 0 mm
19:11 5.9 °C -4.2 °C 1018.8 hPa WNW 4.5 km/h 11.1 km/h 48 % 0 mm
19:16 5.9 °C -4 °C 1018.8 hPa WNW 4.2 km/h 5.6 km/h 49 % 0 mm
19:21 5.8 °C -3.8 °C 1018.8 hPa NW 3.4 km/h 5.6 km/h 50 % 0 mm
19:24 5.8 °C -3.8 °C 1018.8 hPa West 2.9 km/h 5.6 km/h 50 % 0 mm
19:29 5.7 °C -3.9 °C 1018.8 hPa WSW 3.4 km/h 11.1 km/h 50 % 0 mm
19:34 5.7 °C -3.7 °C 1019.2 hPa WNW 8.7 km/h 14.8 km/h 51 % 0 mm
19:39 5.6 °C -4 °C 1018.8 hPa WNW 5.8 km/h 18.5 km/h 50 % 0 mm
19:44 5.6 °C -4 °C 1018.8 hPa NW 6 km/h 9.7 km/h 50 % 0 mm
19:49 5.6 °C -3.8 °C 1019.2 hPa WNW 5.3 km/h 13 km/h 51 % 0 mm
19:54 5.6 °C -3.8 °C 1019.2 hPa WNW 6 km/h 14.8 km/h 51 % 0 mm
19:59 5.6 °C -3.8 °C 1019.5 hPa NW 5.3 km/h 16.7 km/h 51 % 0 mm
20:04 5.6 °C -3.8 °C 1019.5 hPa NW 6.4 km/h 11.3 km/h 51 % 0 mm
20:09 5.6 °C -3.8 °C 1019.2 hPa WNW 7.6 km/h 11.3 km/h 51 % 0 mm
20:14 5.6 °C -4.1 °C 1019.5 hPa WNW 6.1 km/h 13 km/h 50 % 0 mm
20:19 5.6 °C -4.1 °C 1019.2 hPa WNW 4.8 km/h 11.3 km/h 50 % 0 mm
20:24 5.5 °C -4.4 °C 1019.2 hPa WNW 9.7 km/h 18.5 km/h 49 % 0 mm
20:29 5.5 °C -4.4 °C 1019.2 hPa WNW 6.6 km/h 14.8 km/h 49 % 0 mm
20:34 5.5 °C -4.4 °C 1019.2 hPa WNW 0.5 km/h 7.4 km/h 49 % 0 mm
20:39 5.4 °C -4.2 °C 1019.2 hPa WNW 3.1 km/h 5.6 km/h 50 % 0 mm
20:44 5.4 °C -4.2 °C 1019.2 hPa NNW 1.6 km/h 5.6 km/h 50 % 0 mm
20:49 5.4 °C -4.2 °C 1019.2 hPa WNW 4.5 km/h 9.3 km/h 50 % 0 mm
20:54 5.3 °C -4.3 °C 1019.2 hPa North 6.3 km/h 13 km/h 50 % 0 mm
21:00 5.3 °C -4.3 °C 1018.8 hPa WNW 7.9 km/h 12.9 km/h 50 % 0 mm
21:05 5.2 °C -4.7 °C 1018.8 hPa NNW 0.5 km/h 9.3 km/h 49 % 0 mm
21:10 5.1 °C -4.2 °C 1018.8 hPa NW 2.7 km/h 5.6 km/h 51 % 0 mm
21:15 5.1 °C -4 °C 1018.8 hPa NNW 4.5 km/h 9.3 km/h 52 % 0 mm
21:20 5.1 °C -4.5 °C 1018.8 hPa NNE 3.7 km/h 11.3 km/h 50 % 0 mm
21:25 5 °C -4.6 °C 1018.5 hPa NNW 3.1 km/h 7.4 km/h 50 % 0 mm
21:30 4.9 °C -4.4 °C 1018.5 hPa WNW 2.7 km/h 6.4 km/h 51 % 0 mm
21:35 4.9 °C -4.4 °C 1018.8 hPa WNW 0.3 km/h 4.8 km/h 51 % 0 mm
21:40 4.8 °C -4.4 °C 1018.5 hPa Calm     51 % 0 mm
21:45 4.8 °C -4.3 °C 1018.5 hPa WNW 2.1 km/h 3.7 km/h 52 % 0 mm
21:50 4.7 °C -4.3 °C 1018.5 hPa West 2.4 km/h 5.6 km/h 52 % 0 mm
21:55 4.6 °C -4.4 °C 1018.5 hPa West 6.1 km/h 9.3 km/h 52 % 0 mm
22:00 4.6 °C -3.9 °C 1018.8 hPa West 3.4 km/h 9.3 km/h 54 % 0 mm
22:05 4.5 °C -4 °C 1018.8 hPa WNW 0.8 km/h 3.7 km/h 54 % 0 mm
22:11 4.4 °C -3.6 °C 1019.2 hPa WNW 2.9 km/h 9.3 km/h 56 % 0 mm
22:17 4.4 °C -3.9 °C 1019.2 hPa NW 1.6 km/h 14.8 km/h 55 % 0 mm
22:22 4.3 °C -3.9 °C 1019.5 hPa West 1.9 km/h 9.3 km/h 55 % 0 mm
22:23 4.3 °C -3.7 °C 1019.5 hPa WNW 2.1 km/h 5.6 km/h 56 % 0 mm
22:24 4.3 °C -3.9 °C 1011.1 hPa West 7.6 km/h 9.7 km/h 55 % 0 mm
22:27 4.3 °C -4 °C 1019.5 hPa WSW 4 km/h 11.1 km/h 55 % 0 mm
22:32 4.3 °C -4 °C 1019.5 hPa West 5.6 km/h 9.7 km/h 55 % 0 mm
22:33 4.3 °C -4 °C 1019.5 hPa WSW 5.1 km/h 9.3 km/h 55 % 0 mm
22:38 4.3 °C -4.2 °C 1019.2 hPa West 1.8 km/h 9.3 km/h 54 % 0 mm
22:43 4.3 °C -4 °C 1019.2 hPa West 2.9 km/h 9.3 km/h 55 % 0 mm
22:48 4.3 °C -4 °C 1018.8 hPa WNW 5.6 km/h 9.3 km/h 55 % 0 mm
22:53 4.3 °C -3.7 °C 1019.2 hPa West 4.5 km/h 5.6 km/h 56 % 0 mm
22:58 4.2 °C -3.8 °C 1018.8 hPa West 1.6 km/h 3.7 km/h 56 % 0 mm
23:03 4.2 °C -3.6 °C 1018.8 hPa NW 3.5 km/h 11.1 km/h 57 % 0 mm
23:08 4.2 °C -3.6 °C 1018.5 hPa West 4.5 km/h 7.4 km/h 57 % 0 mm
23:13 4.2 °C -3.6 °C 1018.8 hPa West 3.2 km/h 5.6 km/h 57 % 0 mm
23:18 4.1 °C -3.4 °C 1018.8 hPa West 2.6 km/h 5.6 km/h 58 % 0 mm
23:23 4.1 °C -3.5 °C 1018.8 hPa WNW 5 km/h 9.3 km/h 58 % 0 mm
23:28 4.1 °C -3.5 °C 1018.8 hPa West 1.1 km/h 7.4 km/h 58 % 0 mm
23:33 4.1 °C -3.2 °C 1018.8 hPa WNW 2.7 km/h 9.3 km/h 59 % 0 mm
23:38 4 °C -3.3 °C 1018.8 hPa NW 3.4 km/h 5.6 km/h 59 % 0 mm
23:44 3.9 °C -3.3 °C 1018.8 hPa WNW 4.2 km/h 13 km/h 59 % 0 mm
23:49 3.9 °C -3.1 °C 1018.5 hPa NW 3.7 km/h 11.1 km/h 60 % 0 mm
23:54 3.9 °C -3.2 °C 1018.5 hPa NW 2.1 km/h 5.6 km/h 60 % 0 mm
23:59 3.9 °C -3.2 °C 1018.8 hPa WNW 0.8 km/h 5.6 km/h 60 % 0 mm
Crab Meadow Weather
Compliments of Weather Underground - 3 mb

Script developed by  Jim McMurry - jmcmurry@mwt.net Adapted for the template by  Wim van der Kuil - Leuven-Template.eu

Weather Terms: Winter Storms - These are weather hazards associated with freezing or frozen precipitation (freezing rain, sleet, snow) or combined effects of winter precipitation and strong winds.